createdAt,value
2018-04-01T00:01:57.894Z,27.13
2018-04-01T00:04:26.178Z,28.73
2018-04-01T00:06:53.744Z,28.85
2018-04-01T00:09:21.294Z,28.38
2018-04-01T00:11:48.797Z,27.55
2018-04-01T00:14:16.315Z,27.58
2018-04-01T00:16:43.817Z,28.23
2018-04-01T00:19:11.422Z,26.67
2018-04-01T00:21:39.694Z,27.55
2018-04-01T00:24:07.971Z,26.75
2018-04-01T00:26:36.345Z,26.55
2018-04-01T00:29:04.729Z,28.45
2018-04-01T00:31:33.009Z,29.73
2018-04-01T00:34:00.526Z,31.62
2018-04-01T00:36:28.043Z,32.95
2018-04-01T00:38:55.583Z,32.38
2018-04-01T00:41:23.098Z,31.67
2018-04-01T00:43:50.623Z,32.22
2018-04-01T00:46:18.125Z,33.45
2018-04-01T00:48:45.642Z,31.65
2018-04-01T00:51:13.153Z,30.70
2018-04-01T00:53:41.426Z,33.80
2018-04-01T00:56:09.809Z,32.75
2018-04-01T00:58:38.088Z,32.83
2018-04-01T01:01:06.370Z,33.05
2018-04-01T01:03:34.742Z,32.28
2018-04-01T01:06:03.026Z,28.40
2018-04-01T01:08:30.565Z,30.42
2018-04-01T01:10:58.861Z,30.58
2018-04-01T01:13:26.361Z,29.98
2018-04-01T01:15:53.965Z,28.67
2018-04-01T01:18:22.340Z,26.05
2018-04-01T01:20:50.765Z,30.02
2018-04-01T01:23:18.299Z,27.83
2018-04-01T01:25:46.661Z,26.10
2018-04-01T01:28:15.037Z,25.65
2018-04-01T01:30:43.399Z,25.33
2018-04-01T01:33:10.921Z,25.67
2018-04-01T01:35:38.433Z,26.17
2018-04-01T01:38:06.809Z,21.62
2018-04-01T01:40:35.083Z,21.75
2018-04-01T01:43:03.373Z,21.55
2018-04-01T01:45:30.886Z,20.62
2018-04-01T01:47:58.400Z,21.60
2018-04-01T01:50:25.918Z,21.85
2018-04-01T01:52:53.427Z,23.15
2018-04-01T01:55:20.938Z,22.58
2018-04-01T01:57:49.226Z,22.30
2018-04-01T02:00:17.506Z,22.08
2018-04-01T02:02:45.062Z,19.23
2018-04-01T02:05:13.434Z,20.70
2018-04-01T02:07:41.710Z,20.33
2018-04-01T02:10:10.014Z,20.67
2018-04-01T02:12:37.550Z,19.25
2018-04-01T02:15:05.821Z,18.30
2018-04-01T02:17:34.097Z,19.98
2018-04-01T02:20:02.373Z,21.33
2018-04-01T02:22:30.654Z,20.27
2018-04-01T02:24:58.169Z,21.20
2018-04-01T02:27:25.681Z,22.15
2018-04-01T02:29:53.197Z,21.95
2018-04-01T02:32:20.723Z,22.85
2018-04-01T02:34:48.231Z,22.25
2018-04-01T02:37:16.507Z,20.10
2018-04-01T02:39:44.887Z,22.25
2018-04-01T02:42:13.283Z,21.48
2018-04-01T02:44:40.795Z,22.33
2018-04-01T02:47:08.302Z,20.45
2018-04-01T02:49:35.815Z,22.00
2018-04-01T02:52:03.331Z,20.80
2018-04-01T02:54:30.833Z,20.58
2018-04-01T02:56:58.342Z,21.48
2018-04-01T02:59:25.867Z,21.77
2018-04-01T03:01:54.250Z,21.73
2018-04-01T03:04:22.626Z,21.42
2018-04-01T03:06:51.006Z,20.48
2018-04-01T03:09:19.386Z,20.52
2018-04-01T03:11:47.757Z,20.48
2018-04-01T03:14:16.037Z,20.55
2018-04-01T03:16:44.414Z,19.60
2018-04-01T03:19:12.682Z,17.92
2018-04-01T03:21:41.070Z,20.05
2018-04-01T03:24:09.378Z,20.08
2018-04-01T03:26:36.998Z,20.40
2018-04-01T03:29:05.379Z,21.48
2018-04-01T03:31:33.762Z,21.87
2018-04-01T03:34:02.137Z,21.83
2018-04-01T03:36:30.421Z,21.37
2018-04-01T03:38:57.933Z,20.05
2018-04-01T03:41:25.442Z,22.08
2018-04-01T03:43:52.964Z,19.52
2018-04-01T03:46:20.470Z,18.98
2018-04-01T03:48:48.002Z,19.05
2018-04-01T03:51:16.374Z,17.60
2018-04-01T03:53:44.768Z,17.17
2018-04-01T03:56:12.313Z,19.37
2018-04-01T03:58:40.621Z,18.62
2018-04-01T04:01:08.250Z,17.92
2018-04-01T04:03:36.530Z,18.37
2018-04-01T04:06:04.806Z,18.58
2018-04-01T04:08:32.313Z,16.73
2018-04-01T04:10:59.829Z,18.60
2018-04-01T04:13:27.379Z,18.00
2018-04-01T04:15:55.753Z,18.85
2018-04-01T04:18:24.139Z,17.35
2018-04-01T04:20:52.510Z,15.73
2018-04-01T04:23:20.785Z,17.12
2018-04-01T04:25:49.070Z,16.15
2018-04-01T04:28:16.593Z,18.65
2018-04-01T04:30:44.182Z,17.98
2018-04-01T04:33:12.453Z,15.60
2018-04-01T04:35:40.730Z,18.05
2018-04-01T04:38:09.002Z,18.27
2018-04-01T04:40:37.377Z,18.45
2018-04-01T04:43:05.758Z,18.62
2018-04-01T04:45:34.029Z,20.05
2018-04-01T04:48:02.309Z,19.62
2018-04-01T04:50:30.586Z,17.85
2018-04-01T04:52:58.962Z,20.35
2018-04-01T04:55:27.238Z,19.92
2018-04-01T04:57:55.520Z,19.92
2018-04-01T05:00:23.069Z,20.08
2018-04-01T05:02:51.433Z,20.92
2018-04-01T05:05:19.725Z,20.98
2018-04-01T05:07:47.998Z,17.85
2018-04-01T05:10:16.284Z,19.62
2018-04-01T05:12:43.802Z,19.58
2018-04-01T05:15:11.318Z,19.33
2018-04-01T05:17:38.849Z,19.70
2018-04-01T05:20:07.122Z,19.92
2018-04-01T05:22:35.425Z,19.40
2018-04-01T05:25:02.958Z,21.17
2018-04-01T05:27:31.310Z,20.40
2018-04-01T05:30:00.346Z,20.67
2018-04-01T05:32:27.864Z,22.42
2018-04-01T05:34:55.365Z,20.92
2018-04-01T05:37:22.901Z,20.48
2018-04-01T05:39:50.413Z,18.73
2018-04-01T05:42:18.022Z,21.08
2018-04-01T05:44:46.393Z,22.25
2018-04-01T05:47:14.673Z,22.05
2018-04-01T05:49:42.947Z,22.58
2018-04-01T05:52:11.225Z,24.40
2018-04-01T05:54:39.501Z,25.62
2018-04-01T05:57:07.028Z,26.30
2018-04-01T05:59:34.534Z,25.02
2018-04-01T06:02:02.058Z,26.35
2018-04-01T06:04:30.340Z,26.40
2018-04-01T06:06:58.625Z,24.40
2018-04-01T06:09:26.998Z,27.35
2018-04-01T06:11:55.274Z,25.62
2018-04-01T06:14:23.566Z,23.20
2018-04-01T06:16:51.065Z,27.00
2018-04-01T06:19:18.668Z,27.15
2018-04-01T06:21:47.044Z,27.70
2018-04-01T06:24:15.439Z,27.52
2018-04-01T06:26:42.985Z,29.25
2018-04-01T06:29:10.538Z,28.42
2018-04-01T06:31:38.814Z,29.08
2018-04-01T06:34:07.193Z,29.35
2018-04-01T06:36:35.485Z,29.40
2018-04-01T06:39:02.992Z,28.17
2018-04-01T06:41:32.123Z,25.88
2018-04-01T06:44:00.402Z,27.65
2018-04-01T06:46:28.780Z,26.75
2018-04-01T06:48:57.148Z,26.42
2018-04-01T06:51:25.434Z,26.15
2018-04-01T06:53:53.809Z,23.58
2018-04-01T06:56:21.369Z,23.58
2018-04-01T06:58:48.877Z,20.65
2018-04-01T07:01:16.485Z,21.12
2018-04-01T07:03:44.769Z,21.33
2018-04-01T07:06:12.275Z,19.98
2018-04-01T07:08:39.861Z,20.27
2018-04-01T07:11:08.138Z,20.40
2018-04-01T07:13:36.426Z,19.50
2018-04-01T07:16:04.801Z,19.30
2018-04-01T07:18:33.086Z,20.08
2018-04-01T07:21:00.594Z,20.90
2018-04-01T07:23:28.129Z,20.02
2018-04-01T07:25:55.642Z,20.77
2018-04-01T07:28:23.153Z,18.73
2018-04-01T07:30:50.778Z,20.48
2018-04-01T07:33:18.334Z,20.52
2018-04-01T07:35:46.610Z,21.00
2018-04-01T07:38:14.117Z,18.98
2018-04-01T07:40:41.639Z,20.83
2018-04-01T07:43:09.145Z,18.27
2018-04-01T07:45:36.666Z,17.25
2018-04-01T07:48:04.202Z,17.45
2018-04-01T07:50:31.722Z,17.20
2018-04-01T07:52:59.234Z,17.85
2018-04-01T07:55:26.770Z,17.35
2018-04-01T07:57:55.046Z,17.73
2018-04-01T08:00:23.421Z,17.60
2018-04-01T08:02:51.801Z,18.92
2018-04-01T08:05:19.365Z,17.85
2018-04-01T08:07:46.886Z,19.70
2018-04-01T08:10:14.578Z,17.70
2018-04-01T08:12:42.865Z,17.45
2018-04-01T08:15:10.382Z,18.17
2018-04-01T08:17:37.894Z,19.25
2018-04-01T08:20:05.431Z,18.80
2018-04-01T08:22:33.718Z,18.92
2018-04-01T08:25:01.234Z,19.52
2018-04-01T08:27:30.354Z,18.00
2018-04-01T08:29:58.730Z,17.80
2018-04-01T08:32:27.030Z,16.90
2018-04-01T08:34:54.565Z,15.30
2018-04-01T08:37:22.841Z,16.55
2018-04-01T08:39:51.386Z,17.77
2018-04-01T08:42:18.891Z,19.45
2018-04-01T08:44:46.409Z,19.35
2018-04-01T08:47:13.998Z,16.73
2018-04-01T08:49:42.374Z,15.93
2018-04-01T08:52:10.758Z,14.87
2018-04-01T08:54:38.314Z,15.07
2018-04-01T08:57:06.690Z,15.15
2018-04-01T08:59:35.052Z,15.77
2018-04-01T09:02:02.493Z,13.77
2018-04-01T09:04:30.082Z,14.43
2018-04-01T09:06:58.365Z,13.38
2018-04-01T09:09:25.881Z,13.82
2018-04-01T09:11:53.403Z,15.20
2018-04-01T09:14:20.918Z,12.27
2018-04-01T09:16:49.282Z,14.57
2018-04-01T09:19:16.789Z,14.02
2018-04-01T09:21:44.340Z,14.30
2018-04-01T09:24:11.846Z,13.30
2018-04-01T09:26:39.366Z,13.07
2018-04-01T09:29:06.894Z,13.77
2018-04-01T09:31:35.174Z,14.25
2018-04-01T09:34:03.553Z,13.10
2018-04-01T09:36:31.826Z,13.23
2018-04-01T09:39:00.106Z,13.62
2018-04-01T09:41:27.665Z,13.75
2018-04-01T09:43:55.941Z,13.82
2018-04-01T09:46:23.449Z,12.50
2018-04-01T09:48:51.050Z,13.20
2018-04-01T09:51:19.322Z,13.00
2018-04-01T09:53:47.701Z,14.02
2018-04-01T09:56:15.977Z,12.65
2018-04-01T09:58:44.294Z,14.27
2018-04-01T10:01:14.218Z,15.18
2018-04-01T10:03:42.238Z,15.07
2018-04-01T10:06:11.012Z,15.25
2018-04-01T10:08:39.254Z,14.25
2018-04-01T10:11:08.286Z,14.30
2018-04-01T10:13:36.573Z,14.93
2018-04-01T10:16:04.846Z,13.52
2018-04-01T10:18:33.122Z,14.30
2018-04-01T10:21:01.403Z,14.63
2018-04-01T10:23:29.645Z,13.57
2018-04-01T10:25:57.953Z,13.68
2018-04-01T10:28:26.203Z,13.13
2018-04-01T10:30:54.454Z,13.27
2018-04-01T10:33:23.497Z,12.25
2018-04-01T10:35:51.840Z,14.27
2018-04-01T10:38:20.861Z,13.05
2018-04-01T10:40:49.138Z,12.55
2018-04-01T10:43:17.409Z,12.77
2018-04-01T10:45:45.645Z,13.20
2018-04-01T10:48:14.662Z,12.13
2018-04-01T10:50:42.962Z,12.70
2018-04-01T10:53:11.222Z,13.40
2018-04-01T10:55:38.997Z,12.80
2018-04-01T10:58:07.277Z,13.60
2018-04-01T11:00:34.833Z,13.20
2018-04-01T11:03:03.130Z,12.80
2018-04-01T11:05:30.670Z,12.60
2018-04-01T11:07:58.950Z,10.23
2018-04-01T11:10:26.507Z,10.88
2018-04-01T11:12:54.786Z,11.05
2018-04-01T11:15:22.333Z,12.60
2018-04-01T11:17:50.623Z,12.35
2018-04-01T11:20:18.169Z,11.25
2018-04-01T11:22:47.342Z,10.52
2018-04-01T11:25:14.928Z,11.25
2018-04-01T11:27:43.305Z,11.18
2018-04-01T11:30:11.582Z,10.88
2018-04-01T11:32:39.146Z,11.27
2018-04-01T11:35:06.661Z,10.73
2018-04-01T11:37:34.253Z,11.30
2018-04-01T11:40:02.541Z,10.95
2018-04-01T11:42:30.050Z,9.40
2018-04-01T11:44:57.651Z,9.77
2018-04-01T11:47:25.928Z,9.02
2018-04-01T11:49:53.442Z,10.48
2018-04-01T11:52:20.965Z,10.20
2018-04-01T11:54:48.493Z,12.35
2018-04-01T11:57:17.118Z,11.38
2018-04-01T11:59:44.625Z,10.55
2018-04-01T12:02:12.912Z,10.60
2018-04-01T12:04:41.271Z,11.43
2018-04-01T12:07:08.793Z,11.73
2018-04-01T12:09:36.315Z,14.75
2018-04-01T12:12:03.940Z,9.88
2018-04-01T12:14:31.521Z,10.60
2018-04-01T12:16:59.918Z,10.63
2018-04-01T12:19:27.439Z,9.63
2018-04-01T12:21:54.941Z,9.43
2018-04-01T12:24:22.470Z,9.75
2018-04-01T12:26:50.781Z,9.52
2018-04-01T12:29:19.013Z,8.88
2018-04-01T12:31:47.304Z,9.60
2018-04-01T12:34:15.582Z,11.02
2018-04-01T12:36:43.090Z,9.35
2018-04-01T12:39:10.601Z,9.77
2018-04-01T12:41:38.150Z,9.88
2018-04-01T12:44:06.417Z,10.23
2018-04-01T12:46:34.801Z,9.75
2018-04-01T12:49:03.178Z,10.05
2018-04-01T12:51:31.467Z,10.10
2018-04-01T12:53:59.830Z,9.25
2018-04-01T12:56:28.105Z,8.90
2018-04-01T12:58:56.377Z,9.77
2018-04-01T13:01:24.657Z,10.73
2018-04-01T13:03:53.038Z,10.98
2018-04-01T13:06:21.320Z,11.25
2018-04-01T13:08:49.690Z,11.20
2018-04-01T13:11:17.970Z,12.15
2018-04-01T13:13:46.246Z,12.63
2018-04-01T13:16:14.529Z,11.07
2018-04-01T13:18:42.097Z,11.50
2018-04-01T13:21:10.453Z,11.25
2018-04-01T13:23:38.732Z,10.80
2018-04-01T13:26:07.010Z,9.98
2018-04-01T13:28:34.567Z,10.52
2018-04-01T13:31:02.846Z,10.30
2018-04-01T13:33:30.360Z,11.02
2018-04-01T13:35:57.962Z,11.75
2018-04-01T13:38:25.529Z,10.40
2018-04-01T13:40:53.890Z,10.93
2018-04-01T13:43:22.177Z,11.07
2018-04-01T13:45:49.729Z,11.52
2018-04-01T13:48:18.101Z,9.57
2018-04-01T13:50:46.481Z,10.73
2018-04-01T13:53:14.762Z,9.75
2018-04-01T13:55:43.134Z,10.38
2018-04-01T13:58:11.494Z,9.65
2018-04-01T14:00:39.056Z,9.43
2018-04-01T14:03:07.354Z,10.88
2018-04-01T14:05:34.906Z,9.20
2018-04-01T14:08:03.186Z,9.43
2018-04-01T14:10:31.519Z,10.35
2018-04-01T14:12:59.026Z,9.75
2018-04-01T14:15:27.418Z,9.93
2018-04-01T14:17:54.962Z,10.57
2018-04-01T14:20:23.334Z,9.38
2018-04-01T14:22:51.605Z,11.40
2018-04-01T14:25:19.885Z,15.02
2018-04-01T14:27:48.192Z,11.43
2018-04-01T14:30:16.566Z,9.90
2018-04-01T14:32:44.026Z,9.80
2018-04-01T14:35:11.558Z,9.63
2018-04-01T14:37:39.839Z,9.63
2018-04-01T14:40:07.394Z,9.35
2018-04-01T14:42:35.682Z,9.57
2018-04-01T14:45:03.233Z,9.57
2018-04-01T14:47:31.501Z,9.57
2018-04-01T14:49:59.881Z,9.40
2018-04-01T14:52:28.254Z,10.13
2018-04-01T14:54:56.525Z,9.63
2018-04-01T14:57:24.802Z,9.45
2018-04-01T14:59:53.079Z,9.68
2018-04-01T15:02:21.457Z,10.38
2018-04-01T15:04:49.837Z,9.85
2018-04-01T15:07:18.213Z,10.25
2018-04-01T15:09:46.494Z,9.90
2018-04-01T15:12:14.762Z,9.88
2018-04-01T15:14:43.043Z,10.25
2018-04-01T15:17:11.426Z,9.55
2018-04-01T15:19:38.978Z,11.07
2018-04-01T15:22:07.355Z,11.10
2018-04-01T15:24:35.657Z,10.32
2018-04-01T15:27:03.178Z,11.55
2018-04-01T15:29:30.746Z,12.00
2018-04-01T15:31:59.037Z,11.32
2018-04-01T15:34:26.542Z,10.30
2018-04-01T15:36:54.138Z,11.95
2018-04-01T15:39:22.413Z,15.07
2018-04-01T15:41:50.793Z,13.65
2018-04-01T15:44:19.170Z,13.30
2018-04-01T15:46:47.472Z,12.15
2018-04-01T15:49:15.851Z,13.73
2018-04-01T15:51:44.202Z,14.60
2018-04-01T15:54:12.478Z,13.43
2018-04-01T15:56:40.753Z,14.52
2018-04-01T15:59:09.038Z,13.95
2018-04-01T16:01:36.551Z,15.88
2018-04-01T16:04:04.065Z,16.15
2018-04-01T16:06:31.608Z,15.77
2018-04-01T16:08:59.166Z,17.70
2018-04-01T16:11:27.538Z,16.92
2018-04-01T16:13:55.138Z,17.80
2018-04-01T16:16:23.378Z,17.87
2018-04-01T16:18:50.897Z,17.15
2018-04-01T16:21:18.489Z,16.67
2018-04-01T16:23:46.798Z,19.10
2018-04-01T16:26:14.301Z,17.52
2018-04-01T16:28:45.166Z,17.33
2018-04-01T16:31:13.173Z,16.62
2018-04-01T16:33:40.666Z,15.77
2018-04-01T16:36:09.346Z,14.40
2018-04-01T16:38:36.934Z,13.25
2018-04-01T16:41:05.214Z,14.87
2018-04-01T16:43:33.503Z,16.75
2018-04-01T16:46:01.042Z,18.05
2018-04-01T16:48:29.321Z,13.20
2018-04-01T16:50:57.694Z,13.40
2018-04-01T16:53:26.073Z,12.35
2018-04-01T16:55:54.345Z,11.68
2018-04-01T16:58:22.626Z,12.15
2018-04-01T17:00:51.014Z,12.27
2018-04-01T17:03:18.567Z,12.93
2018-04-01T17:05:46.942Z,12.90
2018-04-01T17:08:15.370Z,13.70
2018-04-01T17:10:42.978Z,12.37
2018-04-01T17:13:11.258Z,12.70
2018-04-01T17:15:39.526Z,12.95
2018-04-01T17:18:07.813Z,13.05
2018-04-01T17:20:35.325Z,12.77
2018-04-01T17:23:02.922Z,13.07
2018-04-01T17:25:31.197Z,13.07
2018-04-01T17:28:03.880Z,13.23
2018-04-01T17:30:32.777Z,12.13
2018-04-01T17:33:00.502Z,13.05
2018-04-01T17:35:28.094Z,11.93
2018-04-01T17:37:56.365Z,12.98
2018-04-01T17:40:24.750Z,12.57
2018-04-01T17:42:52.319Z,12.63
2018-04-01T17:45:20.582Z,12.18
2018-04-01T17:47:48.853Z,12.40
2018-04-01T17:50:17.233Z,13.27
2018-04-01T17:52:45.514Z,14.25
2018-04-01T17:55:13.061Z,14.95
2018-04-01T17:57:41.341Z,16.05
2018-04-01T18:00:09.699Z,13.68
2018-04-01T18:02:37.277Z,14.30
2018-04-01T18:05:05.549Z,14.27
2018-04-01T18:07:33.836Z,13.98
2018-04-01T18:10:01.342Z,15.13
2018-04-01T18:12:28.856Z,13.52
2018-04-01T18:14:56.357Z,14.77
2018-04-01T18:17:23.957Z,13.35
2018-04-01T18:19:52.233Z,15.18
2018-04-01T18:22:20.513Z,14.68
2018-04-01T18:24:48.022Z,14.38
2018-04-01T18:27:15.547Z,14.45
2018-04-01T18:29:43.087Z,14.45
2018-04-01T18:32:11.369Z,16.50
2018-04-01T18:34:38.913Z,15.23
2018-04-01T18:37:07.189Z,14.93
2018-04-01T18:39:35.581Z,15.60
2018-04-01T18:42:03.962Z,15.65
2018-04-01T18:44:31.738Z,14.07
2018-04-01T18:47:03.371Z,14.60
2018-04-01T18:49:32.394Z,15.00
2018-04-01T18:51:59.906Z,16.48
2018-04-01T18:54:28.190Z,16.25
2018-04-01T18:56:56.466Z,16.52
2018-04-01T18:59:24.750Z,17.30
2018-04-01T19:01:52.297Z,16.52
2018-04-01T19:04:20.585Z,15.45
2018-04-01T19:06:48.134Z,17.50
2018-04-01T19:09:16.418Z,15.15
2018-04-01T19:11:43.975Z,16.02
2018-04-01T19:14:11.489Z,16.60
2018-04-01T19:19:39.670Z,16.67
2018-04-01T19:22:08.686Z,17.83
2018-04-01T19:24:36.939Z,16.55
2018-04-01T19:27:05.959Z,18.37
2018-04-01T19:29:34.208Z,18.40
2018-04-01T19:32:02.530Z,17.67
2018-04-01T19:34:30.773Z,16.85
2018-04-01T19:36:59.023Z,16.55
2018-04-01T19:39:27.359Z,18.15
2018-04-01T19:41:55.601Z,17.92
2018-04-01T19:44:23.858Z,16.17
2018-04-01T19:46:52.901Z,16.40
2018-04-01T19:49:21.150Z,17.33
2018-04-01T19:51:49.405Z,18.48
2018-04-01T19:54:18.547Z,16.70
2018-04-01T19:56:46.835Z,16.70
2018-04-01T19:59:15.122Z,17.50
2018-04-01T20:01:43.377Z,17.42
2018-04-01T20:04:11.632Z,16.45
2018-04-01T20:06:39.890Z,17.87
2018-04-01T20:09:08.914Z,18.70
2018-04-01T20:11:37.163Z,18.62
2018-04-01T20:14:05.485Z,18.48
2018-04-01T20:16:33.741Z,18.12
2018-04-01T20:19:02.027Z,18.08
2018-04-01T20:21:30.300Z,18.85
2018-04-01T20:23:58.545Z,18.20
2018-04-01T20:26:27.665Z,19.12
2018-04-01T20:28:55.937Z,19.65
2018-04-01T20:31:24.258Z,19.55
2018-04-01T20:33:52.485Z,19.77
2018-04-01T20:36:20.770Z,19.87
2018-04-01T20:38:49.030Z,18.87
2018-04-01T20:41:17.361Z,19.80
2018-04-01T20:43:45.615Z,19.77
2018-04-01T20:46:13.866Z,19.23
2018-04-01T20:48:42.142Z,20.60
2018-04-01T20:51:10.430Z,20.37
2018-04-01T20:53:38.661Z,18.50
2018-04-01T20:56:06.922Z,19.90
2018-04-01T20:58:35.930Z,20.05
2018-04-01T21:01:04.946Z,19.10
2018-04-01T21:03:33.226Z,19.55
2018-04-01T21:06:01.486Z,19.52
2018-04-01T21:08:30.137Z,20.00
2018-04-01T21:10:58.385Z,19.40
2018-04-01T21:13:26.641Z,18.48
2018-04-01T21:15:55.625Z,17.75
2018-04-01T21:18:23.901Z,19.40
2018-04-01T21:20:52.326Z,19.80
2018-04-01T21:23:20.558Z,20.40
2018-04-01T21:25:48.814Z,21.65
2018-04-01T21:28:17.059Z,19.08
2018-04-01T21:30:46.105Z,19.95
2018-04-01T21:33:14.357Z,20.95
2018-04-01T21:35:42.610Z,20.17
2018-04-01T21:38:11.627Z,19.70
2018-04-01T21:40:39.870Z,21.08
2018-04-01T21:43:08.914Z,20.25
2018-04-01T21:45:37.170Z,20.52
2018-04-01T21:48:05.425Z,20.98
2018-04-01T21:50:34.454Z,22.50
2018-04-01T21:53:02.728Z,23.45
2018-04-01T21:55:30.973Z,24.00
2018-04-01T21:57:59.994Z,23.42
2018-04-01T22:00:28.250Z,22.67
2018-04-01T22:02:56.549Z,24.02
2018-04-01T22:05:24.821Z,22.05
2018-04-01T22:07:53.101Z,22.90
2018-04-01T22:10:21.354Z,22.90
2018-04-01T22:12:49.609Z,23.15
2018-04-01T22:15:18.630Z,23.75
2018-04-01T22:17:46.878Z,22.80
2018-04-01T22:20:16.022Z,23.08
2018-04-01T22:22:56.190Z,22.17
2018-04-01T22:25:24.454Z,23.87
2018-04-01T22:27:52.713Z,22.98
2018-04-01T22:30:20.998Z,23.08
2018-04-01T22:32:49.241Z,23.55
2018-04-01T22:35:17.549Z,21.75
2018-04-01T22:37:45.798Z,22.83
2018-04-01T22:40:14.046Z,22.60
2018-04-01T22:42:43.070Z,22.83
2018-04-01T22:45:11.374Z,22.58
2018-04-01T22:47:39.618Z,22.92
2018-04-01T22:50:11.019Z,22.35
2018-04-01T22:52:39.657Z,28.83
2018-04-01T22:55:07.907Z,33.45
2018-04-01T22:57:36.918Z,36.95
2018-04-01T23:00:05.167Z,37.75
2018-04-01T23:02:33.170Z,37.28
2018-04-01T23:05:01.457Z,37.95
2018-04-01T23:07:29.702Z,37.70
2018-04-01T23:09:57.954Z,37.28
2018-04-01T23:12:26.206Z,38.45
2018-04-01T23:14:54.450Z,38.33
2018-04-01T23:17:22.700Z,39.58
2018-04-01T23:19:51.722Z,38.08
2018-04-01T23:22:19.972Z,36.83
2018-04-01T23:24:48.286Z,37.17
2018-04-01T23:27:16.538Z,37.20
2018-04-01T23:29:44.833Z,37.70
2018-04-01T23:32:13.107Z,37.53
2018-04-01T23:34:41.348Z,37.97
2018-04-01T23:37:09.598Z,38.38
2018-04-01T23:39:38.613Z,38.60
2018-04-01T23:42:06.866Z,38.92
2018-04-01T23:44:35.878Z,38.63
2018-04-01T23:47:04.907Z,38.95
2018-04-01T23:49:33.148Z,38.35
2018-04-01T23:52:01.406Z,40.28
2018-04-01T23:54:30.449Z,38.78
2018-04-01T23:56:58.726Z,40.03
2018-04-01T23:59:26.986Z,39.20
